sensor_id;sensor_type;location;lat;lon;timestamp;pressure;altitude;pressure_sealevel;temperature;humidity
22649;BME280;11491;41.942;24.220;2023-02-13T00:00:24;91280.41;;;0.34;72.50
22649;BME280;11491;41.942;24.220;2023-02-13T00:02:51;91275.94;;;0.34;72.93
22649;BME280;11491;41.942;24.220;2023-02-13T00:05:18;91282.03;;;0.35;72.58
22649;BME280;11491;41.942;24.220;2023-02-13T00:07:45;91276.53;;;0.14;72.22
22649;BME280;11491;41.942;24.220;2023-02-13T00:10:12;91274.84;;;0.03;73.56
22649;BME280;11491;41.942;24.220;2023-02-13T00:12:39;91272.00;;;0.10;72.99
22649;BME280;11491;41.942;24.220;2023-02-13T00:15:08;91278.13;;;0.15;72.59
22649;BME280;11491;41.942;24.220;2023-02-13T00:17:35;91277.13;;;0.21;72.15
22649;BME280;11491;41.942;24.220;2023-02-13T00:20:04;91283.44;;;0.20;72.85
22649;BME280;11491;41.942;24.220;2023-02-13T00:22:35;91291.84;;;0.17;73.04
22649;BME280;11491;41.942;24.220;2023-02-13T00:25:06;91290.84;;;0.24;72.72
22649;BME280;11491;41.942;24.220;2023-02-13T00:27:33;91295.88;;;0.25;72.76
22649;BME280;11491;41.942;24.220;2023-02-13T00:30:00;91290.38;;;0.32;72.12
22649;BME280;11491;41.942;24.220;2023-02-13T00:32:28;91290.44;;;0.37;72.26
22649;BME280;11491;41.942;24.220;2023-02-13T00:34:55;91287.28;;;0.35;72.43
22649;BME280;11491;41.942;24.220;2023-02-13T00:37:22;91280.91;;;0.31;72.72
22649;BME280;11491;41.942;24.220;2023-02-13T00:39:49;91291.94;;;0.28;73.10
22649;BME280;11491;41.942;24.220;2023-02-13T00:42:16;91289.31;;;0.28;72.07
22649;BME280;11491;41.942;24.220;2023-02-13T00:44:42;91283.59;;;0.36;71.53
22649;BME280;11491;41.942;24.220;2023-02-13T00:47:09;91278.34;;;0.36;71.84
22649;BME280;11491;41.942;24.220;2023-02-13T00:49:40;91278.63;;;0.39;71.35
22649;BME280;11491;41.942;24.220;2023-02-13T00:52:07;91274.19;;;0.40;70.53
22649;BME280;11491;41.942;24.220;2023-02-13T00:54:33;91275.75;;;0.41;70.87
22649;BME280;11491;41.942;24.220;2023-02-13T00:57:00;91277.25;;;0.32;70.65
22649;BME280;11491;41.942;24.220;2023-02-13T00:59:27;91277.44;;;0.25;71.56
22649;BME280;11491;41.942;24.220;2023-02-13T01:01:54;91282.44;;;0.27;71.95
22649;BME280;11491;41.942;24.220;2023-02-13T01:04:20;91285.44;;;0.35;70.97
22649;BME280;11491;41.942;24.220;2023-02-13T01:06:48;91277.97;;;0.27;71.04
22649;BME280;11491;41.942;24.220;2023-02-13T01:09:15;91288.16;;;0.18;71.81
22649;BME280;11491;41.942;24.220;2023-02-13T01:11:42;91282.84;;;0.13;71.25
22649;BME280;11491;41.942;24.220;2023-02-13T01:14:09;91290.47;;;0.15;72.35
22649;BME280;11491;41.942;24.220;2023-02-13T01:16:35;91287.25;;;0.08;73.06
22649;BME280;11491;41.942;24.220;2023-02-13T01:19:03;91285.38;;;0.03;73.32
22649;BME280;11491;41.942;24.220;2023-02-13T01:21:30;91281.63;;;-0.01;73.57
22649;BME280;11491;41.942;24.220;2023-02-13T01:24:02;91279.59;;;0.06;73.60
22649;BME280;11491;41.942;24.220;2023-02-13T01:26:29;91289.63;;;0.09;73.50
22649;BME280;11491;41.942;24.220;2023-02-13T01:28:55;91284.97;;;0.16;72.85
22649;BME280;11491;41.942;24.220;2023-02-13T01:31:23;91286.34;;;-0.03;72.51
22649;BME280;11491;41.942;24.220;2023-02-13T01:33:50;91293.25;;;-0.19;73.36
22649;BME280;11491;41.942;24.220;2023-02-13T01:36:17;91291.41;;;-0.18;73.52
22649;BME280;11491;41.942;24.220;2023-02-13T01:38:43;91292.34;;;-0.30;74.58
22649;BME280;11491;41.942;24.220;2023-02-13T01:41:11;91282.00;;;-0.14;74.32
22649;BME280;11491;41.942;24.220;2023-02-13T01:43:45;91269.28;;;-0.23;73.72
22649;BME280;11491;41.942;24.220;2023-02-13T01:46:15;91290.31;;;-0.23;73.74
22649;BME280;11491;41.942;24.220;2023-02-13T01:48:43;91293.44;;;-0.26;73.82
22649;BME280;11491;41.942;24.220;2023-02-13T01:51:13;91289.03;;;-0.42;75.11
22649;BME280;11491;41.942;24.220;2023-02-13T01:53:43;91295.16;;;-0.36;75.01
22649;BME280;11491;41.942;24.220;2023-02-13T01:56:18;91289.78;;;-0.25;74.10
22649;BME280;11491;41.942;24.220;2023-02-13T01:58:48;91287.56;;;-0.33;74.04
22649;BME280;11491;41.942;24.220;2023-02-13T02:01:16;91291.41;;;-0.18;73.29
22649;BME280;11491;41.942;24.220;2023-02-13T02:03:46;91297.13;;;-0.27;74.49
22649;BME280;11491;41.942;24.220;2023-02-13T02:06:19;91292.88;;;-0.28;74.46
22649;BME280;11491;41.942;24.220;2023-02-13T02:08:50;91300.28;;;-0.25;74.61
22649;BME280;11491;41.942;24.220;2023-02-13T02:11:25;91290.75;;;-0.31;74.67
22649;BME280;11491;41.942;24.220;2023-02-13T02:13:55;91290.38;;;-0.17;73.35
22649;BME280;11491;41.942;24.220;2023-02-13T02:16:24;91289.28;;;-0.22;73.01
22649;BME280;11491;41.942;24.220;2023-02-13T02:18:51;91297.03;;;-0.32;73.44
22649;BME280;11491;41.942;24.220;2023-02-13T02:24:51;91305.41;;;-0.35;74.14
22649;BME280;11491;41.942;24.220;2023-02-13T02:27:52;91312.31;;;-0.29;74.18
22649;BME280;11491;41.942;24.220;2023-02-13T02:30:45;91307.63;;;-0.27;73.27
22649;BME280;11491;41.942;24.220;2023-02-13T02:33:25;91316.53;;;-0.28;73.35
22649;BME280;11491;41.942;24.220;2023-02-13T02:36:03;91323.34;;;-0.32;73.30
22649;BME280;11491;41.942;24.220;2023-02-13T02:38:42;91321.03;;;-0.45;73.78
22649;BME280;11491;41.942;24.220;2023-02-13T02:41:14;91326.34;;;-0.40;74.28
22649;BME280;11491;41.942;24.220;2023-02-13T02:44:07;91323.63;;;-0.28;73.94
22649;BME280;11491;41.942;24.220;2023-02-13T02:46:46;91332.81;;;-0.31;73.14
22649;BME280;11491;41.942;24.220;2023-02-13T02:49:37;91332.00;;;-0.31;74.07
22649;BME280;11491;41.942;24.220;2023-02-13T02:52:37;91328.09;;;-0.29;73.14
22649;BME280;11491;41.942;24.220;2023-02-13T02:55:09;91331.69;;;-0.35;73.96
22649;BME280;11491;41.942;24.220;2023-02-13T02:57:44;91331.09;;;-0.42;73.86
22649;BME280;11491;41.942;24.220;2023-02-13T03:00:31;91330.59;;;-0.39;74.84
22649;BME280;11491;41.942;24.220;2023-02-13T03:03:19;91335.84;;;-0.39;73.40
22649;BME280;11491;41.942;24.220;2023-02-13T03:06:11;91339.22;;;-0.60;74.40
22649;BME280;11491;41.942;24.220;2023-02-13T03:08:43;91341.28;;;-0.62;74.79
22649;BME280;11491;41.942;24.220;2023-02-13T03:11:29;91340.66;;;-0.53;74.79
22649;BME280;11491;41.942;24.220;2023-02-13T03:14:18;91338.13;;;-0.64;74.96
22649;BME280;11491;41.942;24.220;2023-02-13T03:16:46;91346.63;;;-0.57;75.64
22649;BME280;11491;41.942;24.220;2023-02-13T03:19:40;91339.22;;;-0.60;75.52
22649;BME280;11491;41.942;24.220;2023-02-13T03:22:33;91346.16;;;-0.54;74.77
22649;BME280;11491;41.942;24.220;2023-02-13T03:25:07;91352.91;;;-0.58;75.50
22649;BME280;11491;41.942;24.220;2023-02-13T03:27:42;91342.81;;;-0.50;74.88
22649;BME280;11491;41.942;24.220;2023-02-13T03:30:35;91344.06;;;-0.52;74.98
22649;BME280;11491;41.942;24.220;2023-02-13T03:33:15;91347.69;;;-0.92;75.40
22649;BME280;11491;41.942;24.220;2023-02-13T03:35:49;91337.81;;;-0.85;75.58
22649;BME280;11491;41.942;24.220;2023-02-13T03:38:46;91345.06;;;-0.75;75.74
22649;BME280;11491;41.942;24.220;2023-02-13T03:41:19;91344.97;;;-0.80;76.35
22649;BME280;11491;41.942;24.220;2023-02-13T03:43:59;91350.38;;;-0.70;76.40
22649;BME280;11491;41.942;24.220;2023-02-13T03:46:30;91336.53;;;-0.66;75.88
22649;BME280;11491;41.942;24.220;2023-02-13T03:49:01;91341.44;;;-0.52;75.00
22649;BME280;11491;41.942;24.220;2023-02-13T03:51:49;91349.09;;;-0.68;75.66
22649;BME280;11491;41.942;24.220;2023-02-13T03:54:22;91346.53;;;-0.62;76.13
22649;BME280;11491;41.942;24.220;2023-02-13T03:57:10;91344.16;;;-0.47;75.31
22649;BME280;11491;41.942;24.220;2023-02-13T03:59:59;91348.66;;;-0.64;75.35
22649;BME280;11491;41.942;24.220;2023-02-13T04:02:30;91356.91;;;-0.73;75.95
22649;BME280;11491;41.942;24.220;2023-02-13T04:05:04;91358.50;;;-0.72;76.18
22649;BME280;11491;41.942;24.220;2023-02-13T04:07:34;91360.72;;;-0.63;75.80
22649;BME280;11491;41.942;24.220;2023-02-13T04:10:05;91359.59;;;-0.68;75.71
22649;BME280;11491;41.942;24.220;2023-02-13T04:12:37;91356.41;;;-0.70;76.09
22649;BME280;11491;41.942;24.220;2023-02-13T04:15:11;91360.66;;;-0.52;74.31
22649;BME280;11491;41.942;24.220;2023-02-13T04:17:43;91360.31;;;-0.55;74.55
22649;BME280;11491;41.942;24.220;2023-02-13T04:20:11;91359.59;;;-0.68;74.86
22649;BME280;11491;41.942;24.220;2023-02-13T04:22:42;91359.53;;;-0.73;75.31
22649;BME280;11491;41.942;24.220;2023-02-13T04:25:12;91343.78;;;-0.73;75.06
22649;BME280;11491;41.942;24.220;2023-02-13T04:27:39;91358.03;;;-0.69;75.11
22649;BME280;11491;41.942;24.220;2023-02-13T04:30:07;91356.91;;;-0.73;74.89
22649;BME280;11491;41.942;24.220;2023-02-13T04:32:34;91363.28;;;-0.69;74.87
22649;BME280;11491;41.942;24.220;2023-02-13T04:35:01;91358.03;;;-0.69;73.10
22649;BME280;11491;41.942;24.220;2023-02-13T04:37:28;91361.69;;;-1.03;74.24
22649;BME280;11491;41.942;24.220;2023-02-13T04:39:55;91360.53;;;-1.24;74.84
22649;BME280;11491;41.942;24.220;2023-02-13T04:42:23;91356.31;;;-1.42;75.33
22649;BME280;11491;41.942;24.220;2023-02-13T04:44:50;91358.13;;;-1.43;75.40
22649;BME280;11491;41.942;24.220;2023-02-13T04:47:16;91355.38;;;-1.36;73.61
22649;BME280;11491;41.942;24.220;2023-02-13T04:49:43;91356.69;;;-1.50;74.79
22649;BME280;11491;41.942;24.220;2023-02-13T04:52:10;91354.28;;;-1.69;75.41
22649;BME280;11491;41.942;24.220;2023-02-13T04:54:36;91348.81;;;-1.79;74.89
22649;BME280;11491;41.942;24.220;2023-02-13T04:57:03;91354.28;;;-1.69;74.01
22649;BME280;11491;41.942;24.220;2023-02-13T04:59:31;91365.69;;;-1.75;73.38
22649;BME280;11491;41.942;24.220;2023-02-13T05:01:58;91359.91;;;-1.89;73.73
22649;BME280;11491;41.942;24.220;2023-02-13T05:04:25;91364.63;;;-2.03;73.67
22649;BME280;11491;41.942;24.220;2023-02-13T05:06:53;91366.69;;;-2.05;73.44
22649;BME280;11491;41.942;24.220;2023-02-13T05:09:20;91356.91;;;-2.21;73.40
22649;BME280;11491;41.942;24.220;2023-02-13T05:11:50;91373.09;;;-2.24;72.81
22649;BME280;11491;41.942;24.220;2023-02-13T05:14:16;91364.25;;;-2.47;73.46
22649;BME280;11491;41.942;24.220;2023-02-13T05:16:45;91365.84;;;-2.46;73.58
22649;BME280;11491;41.942;24.220;2023-02-13T05:19:11;91368.47;;;-2.46;72.89
22649;BME280;11491;41.942;24.220;2023-02-13T05:21:38;91373.34;;;-2.61;73.02
22649;BME280;11491;41.942;24.220;2023-02-13T05:24:22;91374.50;;;-2.80;74.07
22649;BME280;11491;41.942;24.220;2023-02-13T05:26:49;91381.34;;;-2.79;73.81
22649;BME280;11491;41.942;24.220;2023-02-13T05:29:16;91377.44;;;-2.89;73.12
22649;BME280;11491;41.942;24.220;2023-02-13T05:31:47;91390.66;;;-2.84;73.27
22649;BME280;11491;41.942;24.220;2023-02-13T05:34:14;91369.94;;;-2.97;73.50
22649;BME280;11491;41.942;24.220;2023-02-13T05:36:41;91388.13;;;-3.02;75.01
22649;BME280;11491;41.942;24.220;2023-02-13T05:39:08;91388.34;;;-3.15;74.41
22649;BME280;11491;41.942;24.220;2023-02-13T05:41:35;91381.06;;;-3.13;74.25
22649;BME280;11491;41.942;24.220;2023-02-13T05:44:01;91376.25;;;-3.40;75.46
22649;BME280;11491;41.942;24.220;2023-02-13T05:46:28;91383.16;;;-3.76;76.68
22649;BME280;11491;41.942;24.220;2023-02-13T05:48:57;91389.53;;;-3.72;77.01
22649;BME280;11491;41.942;24.220;2023-02-13T05:51:23;91402.75;;;-3.66;76.81
22649;BME280;11491;41.942;24.220;2023-02-13T05:53:50;91398.69;;;-3.62;76.20
22649;BME280;11491;41.942;24.220;2023-02-13T05:56:17;91406.34;;;-3.49;75.52
22649;BME280;11491;41.942;24.220;2023-02-13T05:58:44;91407.38;;;-3.50;74.60
22649;BME280;11491;41.942;24.220;2023-02-13T06:01:11;91411.81;;;-3.39;74.16
22649;BME280;11491;41.942;24.220;2023-02-13T06:03:38;91414.81;;;-3.35;74.33
22649;BME280;11491;41.942;24.220;2023-02-13T06:06:07;91415.91;;;-3.43;74.34
22649;BME280;11491;41.942;24.220;2023-02-13T06:08:33;91415.97;;;-3.61;75.73
22649;BME280;11491;41.942;24.220;2023-02-13T06:11:02;91423.31;;;-3.70;75.77
22649;BME280;11491;41.942;24.220;2023-02-13T06:13:29;91415.50;;;-3.58;74.65
22649;BME280;11491;41.942;24.220;2023-02-13T06:15:56;91422.78;;;-3.60;74.97
22649;BME280;11491;41.942;24.220;2023-02-13T06:18:23;91415.41;;;-3.82;74.25
22649;BME280;11491;41.942;24.220;2023-02-13T06:20:49;91435.44;;;-3.76;75.03
22649;BME280;11491;41.942;24.220;2023-02-13T06:23:18;91429.75;;;-3.73;75.02
22649;BME280;11491;41.942;24.220;2023-02-13T06:25:44;91436.81;;;-3.55;74.81
22649;BME280;11491;41.942;24.220;2023-02-13T06:28:11;91430.13;;;-3.39;74.77
22649;BME280;11491;41.942;24.220;2023-02-13T06:30:38;91426.19;;;-3.30;73.95
22649;BME280;11491;41.942;24.220;2023-02-13T06:33:04;91419.94;;;-3.29;74.43
22649;BME280;11491;41.942;24.220;2023-02-13T06:35:31;91422.69;;;-3.23;74.61
22649;BME280;11491;41.942;24.220;2023-02-13T06:37:58;91429.25;;;-3.33;74.28
22649;BME280;11491;41.942;24.220;2023-02-13T06:40:26;91426.31;;;-3.25;74.65
22649;BME280;11491;41.942;24.220;2023-02-13T06:42:53;91422.38;;;-3.15;74.67
22649;BME280;11491;41.942;24.220;2023-02-13T06:45:20;91407.50;;;-3.03;74.76
22649;BME280;11491;41.942;24.220;2023-02-13T06:47:47;91419.56;;;-2.78;73.11
22649;BME280;11491;41.942;24.220;2023-02-13T06:50:16;91418.44;;;-2.59;72.32
22649;BME280;11491;41.942;24.220;2023-02-13T06:52:46;91420.97;;;-2.41;71.55
22649;BME280;11491;41.942;24.220;2023-02-13T06:55:14;91417.06;;;-2.26;71.75
22649;BME280;11491;41.942;24.220;2023-02-13T06:57:43;91414.81;;;-2.11;72.93
22649;BME280;11491;41.942;24.220;2023-02-13T07:00:11;91409.97;;;-1.90;72.84
22649;BME280;11491;41.942;24.220;2023-02-13T07:02:39;91400.44;;;-1.68;71.99
22649;BME280;11491;41.942;24.220;2023-02-13T07:05:06;91404.84;;;-1.28;70.88
22649;BME280;11491;41.942;24.220;2023-02-13T07:07:34;91402.28;;;-0.94;69.52
22649;BME280;11491;41.942;24.220;2023-02-13T07:10:02;91405.97;;;-0.61;68.45
22649;BME280;11491;41.942;24.220;2023-02-13T07:12:31;91408.81;;;-0.29;67.62
22649;BME280;11491;41.942;24.220;2023-02-13T07:14:59;91414.63;;;-0.05;66.18
22649;BME280;11491;41.942;24.220;2023-02-13T07:17:26;91416.63;;;0.27;65.56
22649;BME280;11491;41.942;24.220;2023-02-13T07:19:53;91407.47;;;0.51;65.23
22649;BME280;11491;41.942;24.220;2023-02-13T07:22:19;91405.09;;;0.77;64.19
22649;BME280;11491;41.942;24.220;2023-02-13T07:24:46;91405.78;;;0.94;63.24
22649;BME280;11491;41.942;24.220;2023-02-13T07:27:13;91407.09;;;1.19;61.57
22649;BME280;11491;41.942;24.220;2023-02-13T07:29:39;91407.69;;;1.26;60.58
22649;BME280;11491;41.942;24.220;2023-02-13T07:32:08;91408.47;;;0.99;61.35
22649;BME280;11491;41.942;24.220;2023-02-13T07:34:34;91400.66;;;1.04;61.75
22649;BME280;11491;41.942;24.220;2023-02-13T07:37:01;91412.03;;;1.10;60.58
22649;BME280;11491;41.942;24.220;2023-02-13T07:39:28;91416.78;;;1.40;61.60
22649;BME280;11491;41.942;24.220;2023-02-13T07:41:56;91382.06;;;1.54;60.92
22649;BME280;11491;41.942;24.220;2023-02-13T07:44:23;91417.00;;;2.13;59.90
22649;BME280;11491;41.942;24.220;2023-02-13T07:46:49;91419.53;;;2.46;58.80
22649;BME280;11491;41.942;24.220;2023-02-13T07:49:17;91415.97;;;2.77;57.68
22649;BME280;11491;41.942;24.220;2023-02-13T07:51:44;91417.09;;;3.02;56.77
22649;BME280;11491;41.942;24.220;2023-02-13T07:54:11;91417.16;;;3.22;55.77
22649;BME280;11491;41.942;24.220;2023-02-13T07:56:37;91410.31;;;3.42;54.26
22649;BME280;11491;41.942;24.220;2023-02-13T07:59:04;91412.44;;;3.71;53.84
22649;BME280;11491;41.942;24.220;2023-02-13T08:01:31;91409.25;;;3.99;52.48
22649;BME280;11491;41.942;24.220;2023-02-13T08:03:58;91410.81;;;4.21;50.16
22649;BME280;11491;41.942;24.220;2023-02-13T08:06:26;91414.56;;;3.79;49.09
22649;BME280;11491;41.942;24.220;2023-02-13T08:08:53;91415.59;;;3.42;49.32
22649;BME280;11491;41.942;24.220;2023-02-13T08:11:33;91408.19;;;3.34;51.18
22649;BME280;11491;41.942;24.220;2023-02-13T08:14:18;91403.16;;;3.48;49.55
22649;BME280;11491;41.942;24.220;2023-02-13T08:16:45;91399.72;;;3.42;49.63
22649;BME280;11491;41.942;24.220;2023-02-13T08:19:11;91404.50;;;3.86;50.07
22649;BME280;11491;41.942;24.220;2023-02-13T08:21:39;91404.16;;;4.28;45.98
22649;BME280;11491;41.942;24.220;2023-02-13T08:24:06;91401.84;;;4.87;45.95
22649;BME280;11491;41.942;24.220;2023-02-13T08:26:33;91381.22;;;5.28;44.45
22649;BME280;11491;41.942;24.220;2023-02-13T08:29:00;91389.78;;;5.89;43.97
22649;BME280;11491;41.942;24.220;2023-02-13T08:31:27;91397.25;;;6.45;42.98
22649;BME280;11491;41.942;24.220;2023-02-13T08:33:54;91388.44;;;7.17;41.38
22649;BME280;11491;41.942;24.220;2023-02-13T08:36:22;91382.06;;;7.55;40.33
22649;BME280;11491;41.942;24.220;2023-02-13T08:38:50;91386.06;;;7.72;39.79
22649;BME280;11491;41.942;24.220;2023-02-13T08:41:17;91390.41;;;7.68;38.51
22649;BME280;11491;41.942;24.220;2023-02-13T08:43:46;91384.53;;;6.42;39.96
22649;BME280;11491;41.942;24.220;2023-02-13T08:46:13;91388.63;;;6.05;39.72
22649;BME280;11491;41.942;24.220;2023-02-13T08:48:40;91382.56;;;6.29;40.05
22649;BME280;11491;41.942;24.220;2023-02-13T08:51:08;91374.31;;;6.54;39.48
22649;BME280;11491;41.942;24.220;2023-02-13T08:53:35;91381.63;;;7.10;38.36
22649;BME280;11491;41.942;24.220;2023-02-13T08:56:04;91379.72;;;6.92;38.83
22649;BME280;11491;41.942;24.220;2023-02-13T08:58:31;91375.34;;;7.01;39.15
22649;BME280;11491;41.942;24.220;2023-02-13T09:00:58;91382.41;;;7.11;39.14
22649;BME280;11491;41.942;24.220;2023-02-13T09:03:25;91385.00;;;7.16;38.36
22649;BME280;11491;41.942;24.220;2023-02-13T09:05:52;91379.88;;;7.20;39.25
22649;BME280;11491;41.942;24.220;2023-02-13T09:08:18;91385.16;;;6.82;38.89
22649;BME280;11491;41.942;24.220;2023-02-13T09:10:45;91377.59;;;6.46;40.20
22649;BME280;11491;41.942;24.220;2023-02-13T09:13:13;91380.16;;;6.99;39.28
22649;BME280;11491;41.942;24.220;2023-02-13T09:15:40;91382.75;;;7.04;39.24
22649;BME280;11491;41.942;24.220;2023-02-13T09:18:08;91369.03;;;7.16;38.34
22649;BME280;11491;41.942;24.220;2023-02-13T09:20:34;91372.13;;;7.04;38.51
22649;BME280;11491;41.942;24.220;2023-02-13T09:23:01;91373.69;;;7.81;38.61
22649;BME280;11491;41.942;24.220;2023-02-13T09:25:28;91369.69;;;8.30;35.98
22649;BME280;11491;41.942;24.220;2023-02-13T09:27:55;91370.47;;;7.08;37.54
22649;BME280;11491;41.942;24.220;2023-02-13T09:30:23;91370.75;;;7.64;37.01
22649;BME280;11491;41.942;24.220;2023-02-13T09:32:50;91366.59;;;8.23;35.23
22649;BME280;11491;41.942;24.220;2023-02-13T09:35:17;91374.69;;;8.92;34.55
22649;BME280;11491;41.942;24.220;2023-02-13T09:37:44;91360.19;;;9.35;33.73
22649;BME280;11491;41.942;24.220;2023-02-13T09:40:20;91368.09;;;9.40;32.80
22649;BME280;11491;41.942;24.220;2023-02-13T09:42:48;91349.06;;;9.55;31.77
22649;BME280;11491;41.942;24.220;2023-02-13T09:45:16;91347.38;;;9.59;32.07
22649;BME280;11491;41.942;24.220;2023-02-13T09:47:47;91352.34;;;10.20;32.73
22649;BME280;11491;41.942;24.220;2023-02-13T09:50:18;91342.34;;;10.56;31.18
22649;BME280;11491;41.942;24.220;2023-02-13T09:52:48;91335.06;;;10.26;29.14
22649;BME280;11491;41.942;24.220;2023-02-13T09:55:17;91339.13;;;10.46;31.40
22649;BME280;11491;41.942;24.220;2023-02-13T09:57:49;91334.34;;;10.56;31.09
22649;BME280;11491;41.942;24.220;2023-02-13T10:00:20;91329.78;;;9.81;31.90
22649;BME280;11491;41.942;24.220;2023-02-13T10:03:18;91329.00;;;9.80;30.64
22649;BME280;11491;41.942;24.220;2023-02-13T10:05:52;91331.22;;;10.32;31.35
22649;BME280;11491;41.942;24.220;2023-02-13T10:08:46;91324.56;;;10.61;31.81
22649;BME280;11491;41.942;24.220;2023-02-13T10:11:27;91325.22;;;11.15;34.18
22649;BME280;11491;41.942;24.220;2023-02-13T10:14:01;91323.84;;;11.26;31.64
22649;BME280;11491;41.942;24.220;2023-02-13T10:16:35;91317.69;;;12.21;29.45
22649;BME280;11491;41.942;24.220;2023-02-13T10:19:12;91317.84;;;12.16;29.62
22649;BME280;11491;41.942;24.220;2023-02-13T10:21:45;91308.66;;;11.13;29.92
22649;BME280;11491;41.942;24.220;2023-02-13T10:24:23;91309.94;;;10.27;30.69
22649;BME280;11491;41.942;24.220;2023-02-13T10:26:53;91302.38;;;9.98;31.39
22649;BME280;11491;41.942;24.220;2023-02-13T10:29:25;91305.69;;;9.13;33.13
22649;BME280;11491;41.942;24.220;2023-02-13T10:32:14;91302.59;;;10.01;33.56
22649;BME280;11491;41.942;24.220;2023-02-13T10:34:45;91297.84;;;10.61;31.69
22649;BME280;11491;41.942;24.220;2023-02-13T10:37:14;91295.63;;;11.11;31.87
22649;BME280;11491;41.942;24.220;2023-02-13T10:39:43;91292.00;;;11.16;32.64
22649;BME280;11491;41.942;24.220;2023-02-13T10:42:20;91289.34;;;11.68;30.52
22649;BME280;11491;41.942;24.220;2023-02-13T10:44:56;91276.56;;;12.00;31.15
22649;BME280;11491;41.942;24.220;2023-02-13T10:47:42;91269.84;;;12.41;30.10
22649;BME280;11491;41.942;24.220;2023-02-13T10:50:20;91276.44;;;12.52;30.10
22649;BME280;11491;41.942;24.220;2023-02-13T10:52:57;91268.78;;;12.24;29.28
22649;BME280;11491;41.942;24.220;2023-02-13T10:55:53;91267.59;;;11.87;29.35
22649;BME280;11491;41.942;24.220;2023-02-13T10:58:28;91252.91;;;11.84;29.43
22649;BME280;11491;41.942;24.220;2023-02-13T11:01:01;91260.34;;;11.79;29.81
22649;BME280;11491;41.942;24.220;2023-02-13T11:03:30;91260.91;;;12.19;30.28
22649;BME280;11491;41.942;24.220;2023-02-13T11:05:59;91258.03;;;12.71;29.20
22649;BME280;11491;41.942;24.220;2023-02-13T11:08:32;91250.56;;;13.37;28.63
22649;BME280;11491;41.942;24.220;2023-02-13T11:10:59;91251.19;;;13.96;28.57
22649;BME280;11491;41.942;24.220;2023-02-13T11:13:28;91241.88;;;13.73;27.20
22649;BME280;11491;41.942;24.220;2023-02-13T11:15:58;91232.94;;;13.27;28.58
22649;BME280;11491;41.942;24.220;2023-02-13T11:18:26;91235.66;;;12.67;29.21
22649;BME280;11491;41.942;24.220;2023-02-13T11:21:04;91235.38;;;12.60;29.36
22649;BME280;11491;41.942;24.220;2023-02-13T11:23:36;91228.34;;;12.38;28.86
22649;BME280;11491;41.942;24.220;2023-02-13T11:26:05;91235.38;;;12.60;28.59
22649;BME280;11491;41.942;24.220;2023-02-13T11:28:36;91228.03;;;12.40;28.26
22649;BME280;11491;41.942;24.220;2023-02-13T11:31:12;91219.78;;;12.15;28.50
22649;BME280;11491;41.942;24.220;2023-02-13T11:33:40;91219.53;;;11.91;28.48
22649;BME280;11491;41.942;24.220;2023-02-13T11:36:09;91219.66;;;11.85;28.78
22649;BME280;11491;41.942;24.220;2023-02-13T11:38:39;91218.94;;;12.23;29.50
22649;BME280;11491;41.942;24.220;2023-02-13T11:41:08;91213.03;;;12.39;29.97
22649;BME280;11491;41.942;24.220;2023-02-13T11:43:43;91211.13;;;12.48;28.82
22649;BME280;11491;41.942;24.220;2023-02-13T11:46:16;91211.00;;;12.36;30.17
22649;BME280;11491;41.942;24.220;2023-02-13T11:48:55;91201.88;;;12.66;29.64
22649;BME280;11491;41.942;24.220;2023-02-13T11:51:35;91194.28;;;12.68;29.33
22649;BME280;11491;41.942;24.220;2023-02-13T11:54:03;91191.44;;;13.15;28.51
22649;BME280;11491;41.942;24.220;2023-02-13T11:56:46;91192.75;;;12.88;28.58
22649;BME280;11491;41.942;24.220;2023-02-13T11:59:13;91191.97;;;12.28;29.17
22649;BME280;11491;41.942;24.220;2023-02-13T12:01:40;91194.75;;;12.41;28.04
22649;BME280;11491;41.942;24.220;2023-02-13T12:04:13;91181.56;;;12.57;28.74
22649;BME280;11491;41.942;24.220;2023-02-13T12:06:57;91182.41;;;12.99;29.75
22649;BME280;11491;41.942;24.220;2023-02-13T12:09:24;91175.94;;;13.42;28.91
22649;BME280;11491;41.942;24.220;2023-02-13T12:11:53;91169.59;;;13.47;25.84
22649;BME280;11491;41.942;24.220;2023-02-13T12:14:22;91161.88;;;13.57;26.79
22649;BME280;11491;41.942;24.220;2023-02-13T12:16:53;91169.84;;;13.12;27.08
22649;BME280;11491;41.942;24.220;2023-02-13T12:19:24;91154.56;;;13.25;25.91
22649;BME280;11491;41.942;24.220;2023-02-13T12:22:28;91158.28;;;13.53;24.57
22649;BME280;11491;41.942;24.220;2023-02-13T12:25:24;91143.16;;;13.82;24.39
22649;BME280;11491;41.942;24.220;2023-02-13T12:28:09;91145.22;;;14.10;24.58
22649;BME280;11491;41.942;24.220;2023-02-13T12:30:51;91137.16;;;14.34;24.97
22649;BME280;11491;41.942;24.220;2023-02-13T12:33:33;91140.97;;;14.70;24.71
22649;BME280;11491;41.942;24.220;2023-02-13T12:36:09;91140.22;;;15.10;25.28
22649;BME280;11491;41.942;24.220;2023-02-13T12:38:53;91136.91;;;15.01;25.02
22649;BME280;11491;41.942;24.220;2023-02-13T12:41:27;91120.13;;;14.79;26.54
22649;BME280;11491;41.942;24.220;2023-02-13T12:44:14;91124.56;;;14.88;26.19
22649;BME280;11491;41.942;24.220;2023-02-13T12:46:54;91125.91;;;15.06;27.10
22649;BME280;11491;41.942;24.220;2023-02-13T12:49:39;91126.41;;;15.52;27.32
22649;BME280;11491;41.942;24.220;2023-02-13T12:52:27;91135.56;;;15.63;26.77
22649;BME280;11491;41.942;24.220;2023-02-13T12:55:10;91134.69;;;15.59;27.23
22649;BME280;11491;41.942;24.220;2023-02-13T12:57:50;91129.38;;;15.35;27.92
22649;BME280;11491;41.942;24.220;2023-02-13T13:00:31;91128.88;;;14.52;28.83
22649;BME280;11491;41.942;24.220;2023-02-13T13:03:15;91118.97;;;13.94;29.34
22649;BME280;11491;41.942;24.220;2023-02-13T13:09:04;91121.25;;;12.84;31.41
22649;BME280;11491;41.942;24.220;2023-02-13T13:12:02;91110.50;;;12.84;31.81
22649;BME280;11491;41.942;24.220;2023-02-13T13:14:38;91114.78;;;12.85;32.25
22649;BME280;11491;41.942;24.220;2023-02-13T13:17:14;91122.28;;;13.12;31.52
22649;BME280;11491;41.942;24.220;2023-02-13T13:19:51;91123.47;;;13.03;32.16
22649;BME280;11491;41.942;24.220;2023-02-13T13:22:24;91115.59;;;12.56;31.87